Time;durP1;ratioP1;P1;durP2;ratioP2;P2;SDS_P1;SDS_P2;PMS_P1;PMS_P2;Temp;Humidity;BMP_temperature;BMP_pressure;BME280_temperature;BME280_humidity;BME280_pressure;Samples;Min_cycle;Max_cycle;Signal;HPM_P1;HPM_P2
2021/04/03 00:01:12;;;;;;;11.70;3.03;;;5.50;91.80;;;;;;4385625;32;20217;-62
2021/04/03 00:03:39;;;;;;;14.50;3.63;;;5.60;91.70;;;;;;4391147;32;20235;-62
2021/04/03 00:06:06;;;;;;;14.63;3.30;;;5.70;91.80;;;;;;4389149;32;20156;-62
2021/04/03 00:08:33;;;;;;;21.13;3.03;;;5.70;91.50;;;;;;4389008;32;20247;-63
2021/04/03 00:11:01;;;;;;;14.50;2.60;;;5.70;91.70;;;;;;4388659;32;20225;-63
2021/04/03 00:13:31;;;;;;;10.33;2.57;;;5.60;91.80;;;;;;4389055;32;20155;-63
2021/04/03 00:15:57;;;;;;;20.00;3.43;;;5.50;92.10;;;;;;4390022;32;20159;-63
2021/04/03 00:18:24;;;;;;;17.00;3.63;;;5.60;91.90;;;;;;4391130;32;20285;-63
2021/04/03 00:20:50;;;;;;;17.53;3.33;;;5.70;91.90;;;;;;4390619;32;20298;-63
2021/04/03 00:23:19;;;;;;;19.00;2.80;;;5.70;91.50;;;;;;4390693;32;20231;-63
2021/04/03 00:25:46;;;;;;;20.37;3.93;;;5.80;91.40;;;;;;4387130;32;20229;-63
2021/04/03 00:28:13;;;;;;;15.13;3.20;;;5.80;91.10;;;;;;4385706;32;20595;-63
2021/04/03 00:30:40;;;;;;;12.07;3.10;;;5.90;91.10;;;;;;4387932;32;20580;-63
2021/04/03 00:33:07;;;;;;;21.87;4.00;;;5.90;90.80;;;;;;4387870;32;20549;-64
2021/04/03 00:35:35;;;;;;;21.67;4.53;;;5.90;90.50;;;;;;4387507;32;20514;-63
2021/04/03 00:38:03;;;;;;;19.47;3.93;;;5.90;90.70;;;;;;4389969;32;20217;-63
2021/04/03 00:40:30;;;;;;;18.60;4.00;;;5.90;90.60;;;;;;4388443;32;20136;-63
2021/04/03 00:42:58;;;;;;;24.13;4.47;;;5.90;90.60;;;;;;4382878;32;20233;-63
2021/04/03 00:45:25;;;;;;;15.73;3.33;;;6.00;90.50;;;;;;4386496;32;20321;-63
2021/04/03 00:47:52;;;;;;;15.90;3.83;;;6.00;90.70;;;;;;4387648;32;20224;-63
2021/04/03 00:50:23;;;;;;;18.07;4.10;;;6.00;90.70;;;;;;4389939;32;20230;-63
2021/04/03 00:52:49;;;;;;;28.70;4.40;;;6.00;90.80;;;;;;4385833;32;20156;-62
2021/04/03 00:55:16;;;;;;;19.17;3.80;;;6.00;90.60;;;;;;4389748;32;20235;-62
2021/04/03 00:57:43;;;;;;;17.77;3.70;;;6.00;90.80;;;;;;4388032;32;20152;-63
2021/04/03 01:00:11;;;;;;;20.63;3.77;;;6.10;91.00;;;;;;4388599;32;20223;-63
2021/04/03 01:02:38;;;;;;;15.63;3.23;;;6.10;90.50;;;;;;4388000;32;20145;-64
2021/04/03 01:05:09;;;;;;;20.70;3.13;;;6.10;90.30;;;;;;4389102;32;20202;-64
2021/04/03 01:07:35;;;;;;;17.63;3.50;;;6.10;90.20;;;;;;4382791;32;20682;-64
2021/04/03 01:10:03;;;;;;;32.23;4.73;;;6.10;90.20;;;;;;4388575;32;20208;-64
2021/04/03 01:12:39;;;;;;;18.83;4.47;;;6.20;90.40;;;;;;4385806;32;20186;-64
2021/04/03 01:15:11;;;;;;;27.70;4.03;;;6.20;90.20;;;;;;4388767;32;20190;-64
2021/04/03 01:17:52;;;;;;;15.80;3.60;;;6.20;90.10;;;;;;4386970;32;20217;-63
2021/04/03 01:20:31;;;;;;;20.50;4.30;;;6.20;90.10;;;;;;4386716;32;20250;-64
2021/04/03 01:23:40;;;;;;;25.03;4.50;;;6.30;90.00;;;;;;4388902;32;20251;-63
2021/04/03 01:26:38;;;;;;;26.80;4.80;;;6.30;89.70;;;;;;4386590;32;20211;-63
2021/04/03 01:29:12;;;;;;;25.23;5.13;;;6.30;89.00;;;;;;4385807;32;20265;-63
2021/04/03 01:31:40;;;;;;;16.57;4.23;;;6.30;89.40;;;;;;4388986;32;20206;-63
2021/04/03 01:34:09;;;;;;;20.70;3.70;;;6.30;89.80;;;;;;4386171;32;20184;-63
2021/04/03 01:36:37;;;;;;;19.57;4.27;;;6.30;90.00;;;;;;4385667;32;20636;-63
2021/04/03 01:39:07;;;;;;;22.17;3.93;;;6.40;90.00;;;;;;4385859;32;20252;-64
2021/04/03 01:41:36;;;;;;;23.93;4.00;;;6.30;90.20;;;;;;4388839;32;20259;-63
2021/04/03 01:44:04;;;;;;;20.07;4.07;;;6.30;89.80;;;;;;4386964;32;20258;-63
2021/04/03 01:46:35;;;;;;;21.90;4.23;;;6.40;89.40;;;;;;4385650;32;20211;-62
2021/04/03 01:49:04;;;;;;;22.57;4.07;;;6.40;88.90;;;;;;4388953;32;20517;-63
2021/04/03 01:51:32;;;;;;;21.03;5.07;;;6.40;89.00;;;;;;4386761;32;20194;-62
2021/04/03 01:53:59;;;;;;;19.63;3.63;;;6.40;88.80;;;;;;4388703;32;20168;-62
2021/04/03 01:56:26;;;;;;;14.73;3.93;;;6.50;89.10;;;;;;4385470;32;20216;-62
2021/04/03 01:58:55;;;;;;;23.63;4.03;;;6.50;89.10;;;;;;4385906;32;20176;-63
2021/04/03 02:01:21;;;;;;;24.53;5.87;;;6.50;87.70;;;;;;4386167;32;20209;-62
2021/04/03 02:03:49;;;;;;;19.63;3.63;;;6.50;87.70;;;;;;4386958;32;20163;-63
2021/04/03 02:06:17;;;;;;;23.23;4.33;;;6.50;87.90;;;;;;4388825;32;20203;-63
2021/04/03 02:08:46;;;;;;;16.73;4.03;;;6.50;87.60;;;;;;4387953;32;20172;-63
2021/04/03 02:11:13;;;;;;;31.03;5.93;;;6.60;88.00;;;;;;4385014;32;20210;-63
2021/04/03 02:13:40;;;;;;;27.77;4.40;;;6.60;86.80;;;;;;4389665;32;20223;-62
2021/04/03 02:16:07;;;;;;;20.47;4.07;;;6.60;87.10;;;;;;4382696;32;20176;-63
2021/04/03 02:18:35;;;;;;;25.47;4.77;;;6.60;87.50;;;;;;4381324;32;20191;-61
2021/04/03 02:21:03;;;;;;;18.07;4.13;;;6.60;87.40;;;;;;4378631;32;20581;-62
2021/04/03 02:23:31;;;;;;;19.40;5.10;;;6.70;86.50;;;;;;4378016;32;20182;-62
2021/04/03 02:25:57;;;;;;;19.87;3.67;;;6.60;87.20;;;;;;4384100;32;20212;-62
2021/04/03 02:28:24;;;;;;;18.13;4.77;;;6.50;87.70;;;;;;4387349;32;20161;-62
2021/04/03 02:30:50;;;;;;;20.50;5.00;;;6.60;86.90;;;;;;4376729;32;20168;-63
2021/04/03 02:33:17;;;;;;;17.33;4.37;;;6.70;86.90;;;;;;4383267;32;20227;-63
2021/04/03 02:35:43;;;;;;;22.23;3.80;;;6.70;87.20;;;;;;4387345;32;20180;-63
2021/04/03 02:38:09;;;;;;;29.97;4.57;;;6.70;86.80;;;;;;4390499;32;20179;-63
2021/04/03 02:40:36;;;;;;;26.17;5.07;;;6.80;86.30;;;;;;4387753;32;20183;-64
2021/04/03 02:43:06;;;;;;;26.03;4.47;;;6.80;86.50;;;;;;4379900;32;20207;-64
2021/04/03 02:45:37;;;;;;;21.77;4.17;;;6.80;85.80;;;;;;4389878;32;20211;-64
2021/04/03 02:48:09;;;;;;;17.63;3.93;;;6.70;86.20;;;;;;4386550;32;20211;-64
2021/04/03 02:50:40;;;;;;;17.20;4.33;;;6.80;86.30;;;;;;4376705;32;20478;-64
2021/04/03 02:53:09;;;;;;;17.97;3.83;;;6.90;86.20;;;;;;4378891;32;20217;-64
2021/04/03 02:55:40;;;;;;;21.47;5.07;;;6.80;86.40;;;;;;4377822;32;20168;-63
2021/04/03 02:58:09;;;;;;;27.87;4.73;;;6.80;85.80;;;;;;4377316;32;20167;-63
2021/04/03 03:00:37;;;;;;;19.53;4.13;;;6.70;85.90;;;;;;4376658;32;20209;-63
2021/04/03 03:03:05;;;;;;;22.90;4.30;;;6.80;86.10;;;;;;4383074;32;20176;-63
2021/04/03 03:05:32;;;;;;;18.67;5.20;;;6.70;85.70;;;;;;4390066;32;20613;-63
2021/04/03 03:08:00;;;;;;;18.50;3.90;;;6.70;86.20;;;;;;4381365;32;20211;-63
2021/04/03 03:10:29;;;;;;;16.10;2.97;;;6.80;86.50;;;;;;4383176;32;20179;-63
2021/04/03 03:12:57;;;;;;;17.93;3.67;;;6.80;86.00;;;;;;4387836;32;20244;-63
2021/04/03 03:15:28;;;;;;;22.73;4.33;;;6.80;86.00;;;;;;4376384;32;20585;-63
2021/04/03 03:17:56;;;;;;;24.27;4.93;;;6.80;86.30;;;;;;4376834;32;20259;-63
2021/04/03 03:20:23;;;;;;;20.00;4.17;;;6.80;86.30;;;;;;4376609;32;20168;-62
2021/04/03 03:22:50;;;;;;;19.03;3.93;;;6.80;86.20;;;;;;4375535;32;20224;-62
2021/04/03 03:25:16;;;;;;;17.00;4.03;;;6.70;86.90;;;;;;4375244;32;20218;-62
2021/04/03 03:27:46;;;;;;;21.57;3.63;;;6.70;86.70;;;;;;4386640;32;20220;-63
2021/04/03 03:30:16;;;;;;;21.80;4.73;;;6.70;86.80;;;;;;4377172;32;20628;-63
2021/04/03 03:32:42;;;;;;;24.37;5.17;;;6.70;86.80;;;;;;4378230;32;20570;-63
2021/04/03 03:35:10;;;;;;;27.33;4.30;;;6.60;87.50;;;;;;4376704;32;20223;-62
2021/04/03 03:37:36;;;;;;;21.77;4.67;;;6.50;87.60;;;;;;4377012;32;20194;-63
2021/04/03 03:40:04;;;;;;;20.37;4.20;;;6.50;88.00;;;;;;4377240;32;20224;-62
2021/04/03 03:42:35;;;;;;;20.83;4.57;;;6.50;88.30;;;;;;4388216;32;20182;-62
2021/04/03 03:45:03;;;;;;;24.00;4.50;;;6.50;88.70;;;;;;4373165;32;20164;-62
2021/04/03 03:47:30;;;;;;;21.07;4.37;;;6.30;89.30;;;;;;4380146;32;20270;-62
2021/04/03 03:49:57;;;;;;;26.37;4.90;;;6.20;89.70;;;;;;4376801;32;20174;-63
2021/04/03 03:52:23;;;;;;;23.40;4.60;;;6.10;90.20;;;;;;4374438;32;20271;-63
2021/04/03 03:54:49;;;;;;;32.37;5.40;;;6.00;90.50;;;;;;4385490;32;20201;-63
2021/04/03 03:57:16;;;;;;;25.43;5.07;;;6.00;90.50;;;;;;4378674;32;20243;-63
2021/04/03 03:59:42;;;;;;;28.17;4.93;;;6.00;90.80;;;;;;4379571;32;20711;-62
2021/04/03 04:02:08;;;;;;;24.20;4.80;;;5.90;90.90;;;;;;4375216;32;20228;-62
2021/04/03 04:04:35;;;;;;;25.63;6.37;;;5.90;90.80;;;;;;4385985;32;20268;-64
2021/04/03 04:07:02;;;;;;;25.70;5.60;;;5.90;91.10;;;;;;4383807;32;20263;-64
2021/04/03 04:09:29;;;;;;;25.07;5.63;;;5.80;91.40;;;;;;4383565;32;20175;-63
2021/04/03 04:11:55;;;;;;;26.57;5.07;;;5.80;91.40;;;;;;4378605;32;20156;-64
2021/04/03 04:14:22;;;;;;;23.50;5.03;;;5.80;91.60;;;;;;4389513;32;20215;-63
2021/04/03 04:16:48;;;;;;;28.07;5.73;;;5.80;91.70;;;;;;4382407;32;20226;-63
2021/04/03 04:19:14;;;;;;;25.70;5.97;;;5.80;91.70;;;;;;4376504;32;20272;-63
2021/04/03 04:21:41;;;;;;;24.63;4.80;;;5.70;91.70;;;;;;4376067;32;20176;-62
2021/04/03 04:24:08;;;;;;;37.73;6.17;;;5.70;91.90;;;;;;4384100;32;20246;-62
2021/04/03 04:26:34;;;;;;;31.27;5.53;;;5.70;92.20;;;;;;4377588;32;20215;-63
2021/04/03 04:29:00;;;;;;;27.80;6.07;;;5.60;92.10;;;;;;4383499;32;20715;-61
2021/04/03 04:31:27;;;;;;;28.10;5.83;;;5.60;92.10;;;;;;4375110;32;20160;-62
2021/04/03 04:33:53;;;;;;;33.40;5.40;;;5.60;92.10;;;;;;4370921;32;20608;-63
2021/04/03 04:36:19;;;;;;;27.53;5.90;;;5.60;92.10;;;;;;4379455;32;20243;-62
2021/04/03 04:38:46;;;;;;;27.17;5.43;;;5.50;92.40;;;;;;4384538;32;20176;-62
2021/04/03 04:41:13;;;;;;;31.07;7.40;;;5.60;92.40;;;;;;4375690;32;20551;-62
2021/04/03 04:43:39;;;;;;;28.60;6.50;;;5.60;92.30;;;;;;4376781;32;20212;-62
2021/04/03 04:46:05;;;;;;;29.10;5.93;;;5.50;92.40;;;;;;4379792;32;20640;-63
2021/04/03 04:48:32;;;;;;;30.90;6.30;;;5.60;92.30;;;;;;4388859;32;20215;-61
2021/04/03 04:50:58;;;;;;;30.13;5.53;;;5.50;92.80;;;;;;4386570;32;20667;-62
2021/04/03 04:53:24;;;;;;;28.30;5.90;;;5.40;93.00;;;;;;4383803;32;20651;-62
2021/04/03 04:55:51;;;;;;;27.03;6.77;;;5.40;93.00;;;;;;4381933;32;20259;-62
2021/04/03 04:58:17;;;;;;;32.13;6.00;;;5.40;93.30;;;;;;4375765;32;20580;-62
2021/04/03 05:00:44;;;;;;;34.10;7.13;;;5.40;93.10;;;;;;4382930;32;20317;-63
2021/04/03 05:03:10;;;;;;;27.67;5.83;;;5.50;92.90;;;;;;4375611;32;20654;-63
2021/04/03 05:05:36;;;;;;;26.97;5.83;;;5.50;92.70;;;;;;4381790;32;20215;-63
2021/04/03 05:08:03;;;;;;;35.77;5.47;;;5.60;92.80;;;;;;4376752;32;20223;-63
2021/04/03 05:10:29;;;;;;;31.53;6.90;;;5.60;92.40;;;;;;4388433;32;20183;-62
2021/04/03 05:13:00;;;;;;;39.20;7.07;;;5.60;92.70;;;;;;4378104;32;20278;-62
2021/04/03 05:15:27;;;;;;;24.57;6.13;;;5.50;92.90;;;;;;4375058;32;20172;-62
2021/04/03 05:17:53;;;;;;;33.27;6.37;;;5.40;93.10;;;;;;4374283;32;20243;-62
2021/04/03 05:20:20;;;;;;;23.73;6.27;;;5.50;93.20;;;;;;4377871;32;20191;-63
2021/04/03 05:22:46;;;;;;;23.67;5.93;;;5.50;93.20;;;;;;4383174;32;20657;-62
2021/04/03 05:25:12;;;;;;;28.23;5.80;;;5.70;93.10;;;;;;4372962;32;20212;-63
2021/04/03 05:27:39;;;;;;;33.37;5.70;;;5.70;93.10;;;;;;4377311;32;20156;-62
2021/04/03 05:30:07;;;;;;;32.30;6.63;;;5.90;92.60;;;;;;4374621;32;20168;-62
2021/04/03 05:32:34;;;;;;;24.63;6.77;;;5.90;92.60;;;;;;4378263;32;20585;-63
2021/04/03 05:35:00;;;;;;;22.13;5.40;;;6.00;92.60;;;;;;4378843;32;20216;-64
2021/04/03 05:37:26;;;;;;;34.63;6.53;;;6.00;92.60;;;;;;4385510;32;20597;-62
2021/04/03 05:39:53;;;;;;;31.10;5.83;;;6.20;92.10;;;;;;4381706;32;20172;-62
2021/04/03 05:42:20;;;;;;;27.33;4.90;;;6.20;92.00;;;;;;4383007;32;20183;-62
2021/04/03 05:44:46;;;;;;;23.67;5.90;;;6.20;92.00;;;;;;4373902;32;20160;-63
2021/04/03 05:47:14;;;;;;;27.10;6.20;;;6.30;92.00;;;;;;4386805;32;20181;-62
2021/04/03 05:49:41;;;;;;;35.03;6.87;;;6.40;91.90;;;;;;4386047;32;20171;-62
2021/04/03 05:52:08;;;;;;;34.43;7.23;;;6.50;91.60;;;;;;4384772;32;20205;-63
2021/04/03 05:54:35;;;;;;;29.73;5.70;;;6.50;91.50;;;;;;4385702;32;20223;-64
2021/04/03 05:57:02;;;;;;;32.50;6.20;;;6.60;91.40;;;;;;4373793;32;20180;-63
2021/04/03 05:59:29;;;;;;;30.10;7.00;;;6.40;91.50;;;;;;4378973;32;20212;-61
2021/04/03 06:01:55;;;;;;;33.53;6.07;;;6.40;91.60;;;;;;4381619;32;20220;-63
2021/04/03 06:04:22;;;;;;;30.47;6.07;;;6.50;91.50;;;;;;4378557;32;20149;-62
2021/04/03 06:06:50;;;;;;;26.63;5.70;;;6.50;91.40;;;;;;4383498;32;20219;-61
2021/04/03 06:09:17;;;;;;;22.60;6.10;;;6.70;91.20;;;;;;4377019;32;20199;-60
2021/04/03 06:11:44;;;;;;;23.93;5.13;;;6.60;91.40;;;;;;4374481;32;20227;-61
2021/04/03 06:14:11;;;;;;;28.47;6.67;;;6.50;91.20;;;;;;4373093;32;20560;-61
2021/04/03 06:16:39;;;;;;;26.40;5.23;;;6.60;91.30;;;;;;4372884;32;20164;-62
2021/04/03 06:19:10;;;;;;;29.67;5.70;;;6.70;91.20;;;;;;4373154;32;20247;-62
2021/04/03 06:21:37;;;;;;;22.00;5.80;;;6.60;91.10;;;;;;4376108;32;20220;-61
2021/04/03 06:24:14;;;;;;;38.80;6.73;;;6.60;91.50;;;;;;4374903;32;20249;-60
2021/04/03 06:26:40;;;;;;;27.37;6.03;;;6.70;91.40;;;;;;4372486;32;20632;-62
2021/04/03 06:29:22;;;;;;;26.43;4.97;;;7.10;90.80;;;;;;4373502;32;20195;-62
2021/04/03 06:31:52;;;;;;;48.87;7.57;;;7.40;90.60;;;;;;4372658;32;20174;-62
2021/04/03 06:34:26;;;;;;;35.07;6.07;;;7.70;89.90;;;;;;4369121;32;20608;-61
2021/04/03 06:36:53;;;;;;;25.83;6.20;;;7.90;89.30;;;;;;4372606;32;20176;-62
2021/04/03 06:39:20;;;;;;;27.13;5.40;;;7.90;88.50;;;;;;4375062;32;20213;-61
2021/04/03 06:41:46;;;;;;;35.77;5.97;;;8.20;88.30;;;;;;4372977;32;20188;-62
2021/04/03 06:44:13;;;;;;;21.33;5.13;;;8.60;87.70;;;;;;4375538;32;20212;-62
2021/04/03 06:46:40;;;;;;;31.27;5.80;;;8.30;86.90;;;;;;4373653;32;20198;-61
2021/04/03 06:49:08;;;;;;;30.43;6.50;;;8.30;87.20;;;;;;4374043;32;20165;-61
2021/04/03 06:51:34;;;;;;;28.93;6.37;;;7.70;88.20;;;;;;4374027;32;20187;-63
2021/04/03 06:54:03;;;;;;;25.23;6.60;;;8.10;87.00;;;;;;4374033;32;20655;-62
2021/04/03 06:56:31;;;;;;;21.53;5.07;;;8.00;86.20;;;;;;4372011;32;20208;-63
2021/04/03 06:58:59;;;;;;;27.73;5.67;;;8.10;86.70;;;;;;4376764;32;20485;-63
2021/04/03 07:01:27;;;;;;;23.93;5.73;;;8.40;85.70;;;;;;4376712;32;20275;-62
2021/04/03 07:03:56;;;;;;;24.30;6.00;;;8.80;84.60;;;;;;4377069;32;20223;-62
2021/04/03 07:06:24;;;;;;;22.30;4.83;;;8.80;84.10;;;;;;4377347;32;20210;-62
2021/04/03 07:08:51;;;;;;;31.17;6.93;;;8.70;84.20;;;;;;4374798;32;20205;-62
2021/04/03 07:11:19;;;;;;;24.77;4.47;;;8.80;83.60;;;;;;4313753;32;1800240;-62
2021/04/03 07:13:45;;;;;;;22.17;4.70;;;8.70;84.70;;;;;;4371191;32;20267;-62
2021/04/03 07:16:12;;;;;;;30.00;4.93;;;9.00;83.30;;;;;;4371055;32;20243;-60
2021/04/03 07:18:39;;;;;;;34.07;5.57;;;9.20;82.90;;;;;;4374363;32;20579;-60
2021/04/03 07:21:07;;;;;;;27.00;5.90;;;8.90;83.30;;;;;;4368802;32;20184;-61
2021/04/03 07:23:35;;;;;;;30.70;5.73;;;9.00;81.60;;;;;;4366804;32;20207;-60
2021/04/03 07:26:03;;;;;;;28.70;5.60;;;9.00;82.80;;;;;;4368655;32;20219;-63
2021/04/03 07:28:37;;;;;;;20.67;4.67;;;9.40;81.90;;;;;;4362968;32;20230;-62
2021/04/03 07:31:04;;;;;;;21.10;5.73;;;9.30;81.80;;;;;;4367450;32;20203;-63
2021/04/03 07:33:31;;;;;;;25.80;5.07;;;9.20;82.00;;;;;;4369301;32;20163;-62
2021/04/03 07:35:58;;;;;;;14.20;4.33;;;9.30;82.00;;;;;;4368561;32;20227;-64
2021/04/03 07:38:26;;;;;;;25.47;5.13;;;9.10;82.10;;;;;;4369962;32;20185;-62
2021/04/03 07:40:54;;;;;;;28.17;6.07;;;9.50;81.30;;;;;;4361574;33;20187;-62
2021/04/03 07:43:36;;;;;;;22.70;5.50;;;9.10;81.70;;;;;;4366901;32;20179;-63
2021/04/03 07:46:06;;;;;;;27.13;5.07;;;8.70;82.70;;;;;;4366868;32;20572;-62
2021/04/03 07:48:49;;;;;;;30.97;6.00;;;8.90;82.60;;;;;;4369576;32;20167;-62
2021/04/03 07:51:44;;;;;;;34.30;6.53;;;8.90;82.00;;;;;;4361087;33;20198;-62
2021/04/03 07:54:27;;;;;;;27.20;6.27;;;9.30;80.60;;;;;;4354905;32;20188;-62
2021/04/03 07:56:56;;;;;;;22.57;5.00;;;9.50;81.50;;;;;;4368133;32;20639;-62
2021/04/03 07:59:51;;;;;;;25.17;5.37;;;10.20;79.20;;;;;;4365250;32;20152;-62
2021/04/03 08:02:20;;;;;;;18.10;4.53;;;10.50;76.70;;;;;;4367440;32;20558;-62
2021/04/03 08:04:47;;;;;;;21.20;5.00;;;10.70;76.40;;;;;;4368380;32;20149;-61
2021/04/03 08:07:14;;;;;;;27.73;6.37;;;11.00;75.40;;;;;;4373838;32;20169;-63
2021/04/03 08:09:40;;;;;;;23.47;5.13;;;11.50;73.00;;;;;;4376026;32;20156;-63
2021/04/03 08:12:08;;;;;;;23.57;5.10;;;11.40;72.50;;;;;;4382322;32;20157;-62
2021/04/03 08:14:35;;;;;;;23.27;5.60;;;11.70;72.10;;;;;;4385547;32;20149;-63
2021/04/03 08:17:04;;;;;;;28.80;5.77;;;11.70;71.60;;;;;;4382346;32;20218;-63
2021/04/03 08:19:33;;;;;;;25.33;5.07;;;11.40;72.80;;;;;;4382349;32;20154;-62
2021/04/03 08:22:00;;;;;;;22.97;5.20;;;11.30;72.60;;;;;;4385613;32;20153;-62
2021/04/03 08:24:27;;;;;;;23.73;5.33;;;11.40;72.90;;;;;;4382390;32;20157;-63
2021/04/03 08:26:54;;;;;;;18.20;4.67;;;11.50;72.00;;;;;;4379995;32;20191;-63
2021/04/03 08:29:25;;;;;;;20.07;5.27;;;11.60;71.80;;;;;;4381937;32;20169;-62
2021/04/03 08:31:54;;;;;;;22.87;4.87;;;13.00;69.50;;;;;;4383632;32;20233;-63
2021/04/03 08:34:21;;;;;;;23.50;5.17;;;15.50;61.70;;;;;;4383699;32;20180;-63
2021/04/03 08:36:49;;;;;;;20.50;5.13;;;14.60;61.50;;;;;;4386906;32;20166;-64
2021/04/03 08:39:17;;;;;;;19.43;4.93;;;14.40;65.90;;;;;;4386284;32;20253;-62
2021/04/03 08:41:44;;;;;;;19.53;4.17;;;17.60;58.00;;;;;;4386106;32;20263;-61
2021/04/03 08:44:16;;;;;;;16.10;4.60;;;20.20;49.10;;;;;;4383610;32;20149;-62
2021/04/03 08:46:44;;;;;;;17.70;4.70;;;19.80;47.20;;;;;;4381380;32;20153;-63
2021/04/03 08:49:22;;;;;;;19.07;4.67;;;22.40;44.50;;;;;;4383640;32;20160;-63
2021/04/03 08:51:49;;;;;;;18.43;4.60;;;24.60;38.70;;;;;;4383329;32;20277;-63
2021/04/03 08:54:16;;;;;;;21.17;4.40;;;25.50;36.30;;;;;;4382248;32;20658;-62
2021/04/03 08:56:42;;;;;;;14.53;3.93;;;25.60;36.40;;;;;;4387327;32;20229;-63
2021/04/03 08:59:13;;;;;;;17.97;4.20;;;22.90;38.70;;;;;;4380011;32;20891;-63
2021/04/03 09:01:44;;;;;;;26.13;5.67;;;20.20;43.60;;;;;;4382118;32;20144;-64
2021/04/03 09:04:11;;;;;;;24.80;5.23;;;16.90;51.20;;;;;;4377297;32;20274;-63
2021/04/03 09:06:46;;;;;;;23.87;4.83;;;16.40;53.60;;;;;;4384541;32;20218;-64
2021/04/03 09:09:18;;;;;;;25.10;5.37;;;15.60;55.20;;;;;;4384014;32;20270;-65
2021/04/03 09:11:55;;;;;;;20.27;4.97;;;14.10;60.40;;;;;;4384728;32;20153;-66
2021/04/03 09:14:26;;;;;;;19.43;5.53;;;14.50;60.80;;;;;;4382640;32;20282;-65
2021/04/03 09:16:53;;;;;;;22.63;5.43;;;14.30;60.40;;;;;;4383827;32;20178;-64
2021/04/03 09:19:26;;;;;;;21.73;4.60;;;13.80;61.60;;;;;;4385054;32;20165;-64
2021/04/03 09:21:53;;;;;;;20.80;5.93;;;13.30;63.10;;;;;;4381161;32;20600;-63
2021/04/03 09:24:35;;;;;;;23.70;5.10;;;12.90;66.00;;;;;;4385613;32;20458;-66
2021/04/03 09:27:13;;;;;;;21.67;5.33;;;13.10;66.00;;;;;;4381859;32;20144;-64
2021/04/03 09:29:43;;;;;;;18.40;4.77;;;13.50;64.60;;;;;;4384410;32;20493;-63
2021/04/03 09:32:12;;;;;;;21.20;5.10;;;13.40;64.20;;;;;;4380863;32;20175;-64
2021/04/03 09:34:42;;;;;;;24.03;4.53;;;12.50;64.90;;;;;;4376186;32;20202;-64
2021/04/03 09:37:15;;;;;;;22.40;5.47;;;11.90;68.00;;;;;;4385567;32;20178;-64
2021/04/03 09:39:44;;;;;;;28.50;5.67;;;11.30;69.10;;;;;;4385742;32;20155;-66
2021/04/03 09:42:15;;;;;;;25.87;5.17;;;11.90;70.60;;;;;;4382941;32;20154;-63
2021/04/03 09:44:44;;;;;;;21.23;4.90;;;12.60;67.20;;;;;;4385255;32;20159;-65
2021/04/03 09:47:11;;;;;;;22.87;4.67;;;12.90;64.30;;;;;;4380730;32;20478;-64
2021/04/03 09:49:38;;;;;;;22.37;4.43;;;12.70;64.90;;;;;;4379270;32;20202;-66
2021/04/03 09:52:06;;;;;;;18.53;4.33;;;12.50;65.60;;;;;;4381427;32;20180;-64
2021/04/03 09:54:32;;;;;;;22.20;4.87;;;12.50;65.80;;;;;;4381543;32;20235;-64
2021/04/03 09:57:01;;;;;;;26.93;5.03;;;12.20;68.00;;;;;;4379359;32;20266;-66
2021/04/03 09:59:28;;;;;;;27.17;5.50;;;12.40;67.30;;;;;;4378808;32;20197;-66
2021/04/03 10:01:55;;;;;;;21.50;5.13;;;12.50;67.00;;;;;;4383219;32;20453;-64
2021/04/03 10:04:21;;;;;;;18.83;4.57;;;12.60;65.70;;;;;;4383069;32;20691;-64
2021/04/03 10:06:48;;;;;;;19.83;5.57;;;12.50;67.20;;;;;;4383256;32;20165;-65
2021/04/03 10:09:16;;;;;;;17.60;4.13;;;12.80;65.40;;;;;;4382301;32;20160;-67
2021/04/03 10:11:45;;;;;;;19.63;4.87;;;12.90;64.00;;;;;;4367571;32;20163;-65
2021/04/03 10:14:17;;;;;;;18.73;4.17;;;12.70;62.90;;;;;;4369855;32;20152;-64
2021/04/03 10:16:44;;;;;;;18.53;4.40;;;12.30;64.90;;;;;;4364089;32;21082;-66
2021/04/03 10:19:10;;;;;;;13.80;4.47;;;12.60;66.20;;;;;;4367258;32;20577;-63
2021/04/03 10:21:37;;;;;;;15.17;4.23;;;12.80;63.50;;;;;;4365416;32;20168;-65
2021/04/03 10:24:04;;;;;;;18.43;4.60;;;12.50;64.40;;;;;;4368508;32;20169;-65
2021/04/03 10:26:30;;;;;;;15.67;4.07;;;11.90;65.60;;;;;;4365718;32;20199;-64
2021/04/03 10:29:01;;;;;;;23.27;4.73;;;11.80;67.40;;;;;;4366442;32;20179;-63
2021/04/03 10:31:29;;;;;;;17.97;5.13;;;11.70;67.30;;;;;;4367224;32;20167;-63
2021/04/03 10:33:56;;;;;;;17.37;4.83;;;11.50;67.60;;;;;;4369682;32;20176;-64
2021/04/03 10:36:22;;;;;;;16.40;4.60;;;11.40;67.80;;;;;;4370265;32;20266;-64
2021/04/03 10:38:48;;;;;;;15.60;4.67;;;11.50;68.50;;;;;;4367899;32;20243;-64
2021/04/03 10:41:20;;;;;;;19.27;4.07;;;11.70;68.40;;;;;;4364336;32;20179;-64
2021/04/03 10:43:47;;;;;;;19.80;4.83;;;12.10;67.20;;;;;;4371133;32;20145;-62
2021/04/03 10:46:16;;;;;;;19.87;4.67;;;12.30;66.80;;;;;;4365297;32;20522;-63
2021/04/03 10:48:44;;;;;;;22.53;5.37;;;12.60;66.20;;;;;;4367150;32;20189;-64
2021/04/03 10:51:10;;;;;;;23.57;5.17;;;12.80;64.80;;;;;;4369132;32;20258;-63
2021/04/03 10:53:36;;;;;;;23.33;4.77;;;12.10;66.60;;;;;;4362738;33;20204;-66
2021/04/03 10:56:03;;;;;;;29.73;4.87;;;12.20;66.30;;;;;;4369032;32;20198;-65
2021/04/03 10:58:29;;;;;;;20.03;4.70;;;12.00;67.70;;;;;;4369176;32;20282;-63
2021/04/03 11:00:56;;;;;;;16.97;4.70;;;11.90;66.20;;;;;;4377483;32;20183;-64
2021/04/03 11:03:22;;;;;;;23.00;5.40;;;11.00;68.20;;;;;;4368094;32;20194;-66
2021/04/03 11:05:50;;;;;;;22.13;5.30;;;10.80;70.60;;;;;;4377491;32;20221;-65
2021/04/03 11:08:16;;;;;;;17.90;4.33;;;11.00;70.60;;;;;;4376138;32;20180;-66
2021/04/03 11:10:42;;;;;;;21.57;5.27;;;11.50;69.30;;;;;;4373490;32;20596;-64
2021/04/03 11:13:13;;;;;;;19.60;5.07;;;11.30;69.60;;;;;;4378347;32;20186;-62
2021/04/03 11:15:40;;;;;;;18.50;4.60;;;11.20;69.60;;;;;;4392540;32;20498;-68
2021/04/03 11:18:06;;;;;;;22.43;5.67;;;11.20;69.10;;;;;;4391773;32;20150;-64
2021/04/03 11:20:32;;;;;;;19.83;4.87;;;11.40;68.10;;;;;;4391948;32;20211;-63
2021/04/03 11:23:00;;;;;;;16.50;4.63;;;11.60;68.10;;;;;;4387239;32;20562;-64
2021/04/03 11:25:28;;;;;;;24.80;5.23;;;12.40;67.40;;;;;;4387573;32;20147;-65
2021/04/03 11:27:54;;;;;;;22.10;4.70;;;12.80;65.40;;;;;;4387586;32;20478;-65
2021/04/03 11:30:22;;;;;;;19.07;4.60;;;12.80;64.10;;;;;;4385621;32;20152;-65
2021/04/03 11:32:49;;;;;;;19.53;4.97;;;13.10;64.00;;;;;;4381611;32;20577;-66
2021/04/03 11:35:32;;;;;;;20.47;5.00;;;12.60;63.50;;;;;;4384935;32;20607;-67
2021/04/03 11:37:59;;;;;;;16.67;4.27;;;12.40;64.20;;;;;;4380863;32;20211;-64
2021/04/03 11:40:26;;;;;;;26.30;6.83;;;11.90;66.70;;;;;;4380120;32;20360;-65
2021/04/03 11:42:55;;;;;;;21.80;5.23;;;11.30;67.30;;;;;;4380418;32;20141;-64
2021/04/03 11:45:26;;;;;;;21.33;4.27;;;11.30;68.80;;;;;;4381521;32;20161;-63
2021/04/03 11:47:56;;;;;;;19.73;5.10;;;11.10;68.80;;;;;;4380482;32;20236;-63
2021/04/03 11:50:25;;;;;;;17.00;4.60;;;11.40;66.80;;;;;;4377638;32;20177;-65
2021/04/03 11:52:53;;;;;;;25.87;5.53;;;11.40;68.10;;;;;;4377620;32;20202;-66
2021/04/03 11:55:22;;;;;;;16.70;4.50;;;11.60;67.80;;;;;;4385442;32;20174;-64
2021/04/03 11:57:48;;;;;;;19.87;4.37;;;11.90;68.00;;;;;;4380861;32;20185;-63
2021/04/03 12:00:15;;;;;;;17.93;4.67;;;12.20;67.20;;;;;;4386322;32;20597;-66
2021/04/03 12:02:49;;;;;;;19.47;4.10;;;11.80;66.80;;;;;;4382872;32;20140;-62
2021/04/03 12:05:17;;;;;;;18.20;4.10;;;11.80;66.80;;;;;;4384998;32;20530;-64
2021/04/03 12:07:46;;;;;;;13.27;3.90;;;12.10;65.80;;;;;;4383170;32;20498;-64
2021/04/03 12:10:16;;;;;;;16.80;4.70;;;11.80;65.50;;;;;;4381142;32;20597;-63
2021/04/03 12:12:44;;;;;;;15.47;4.00;;;12.00;66.40;;;;;;4380837;32;20219;-68
2021/04/03 12:15:12;;;;;;;18.10;4.07;;;11.80;67.30;;;;;;4379185;32;20234;-64
2021/04/03 12:17:41;;;;;;;14.30;4.13;;;12.00;66.40;;;;;;4379743;32;20158;-64
2021/04/03 12:20:10;;;;;;;14.03;4.13;;;11.80;66.10;;;;;;4381717;32;20214;-63
2021/04/03 12:22:44;;;;;;;20.20;4.80;;;11.50;67.90;;;;;;4383392;32;20148;-65
2021/04/03 12:25:12;;;;;;;20.27;4.47;;;11.70;67.30;;;;;;4381644;32;20561;-66
2021/04/03 12:27:44;;;;;;;18.67;4.33;;;11.40;67.20;;;;;;4386170;32;20658;-62
2021/04/03 12:30:12;;;;;;;18.93;4.27;;;11.50;65.00;;;;;;4387804;32;20163;-63
2021/04/03 12:32:38;;;;;;;19.63;4.87;;;11.50;66.60;;;;;;4379778;32;20272;-64
2021/04/03 12:35:09;;;;;;;19.97;4.83;;;12.00;65.70;;;;;;4381483;32;20163;-68
2021/04/03 12:37:36;;;;;;;19.43;5.23;;;12.00;66.00;;;;;;4383744;32;20191;-64
2021/04/03 12:40:02;;;;;;;25.63;4.20;;;12.00;64.80;;;;;;4376717;32;20212;-63
2021/04/03 12:42:30;;;;;;;19.80;4.07;;;12.00;64.60;;;;;;4383175;32;20784;-63
2021/04/03 12:44:59;;;;;;;9.57;3.30;;;12.00;63.60;;;;;;4388442;32;20270;-63
2021/04/03 12:47:25;;;;;;;12.57;3.60;;;11.60;65.30;;;;;;4380561;32;20169;-68
2021/04/03 12:49:53;;;;;;;16.70;3.50;;;11.50;65.70;;;;;;4376580;32;20215;-65